Time;durP1;ratioP1;P1;durP2;ratioP2;P2;SDS_P1;SDS_P2;PMS_P1;PMS_P2;Temp;Humidity;BMP_temperature;BMP_pressure;BME280_temperature;BME280_humidity;BME280_pressure;Samples;Min_cycle;Max_cycle;Signal;HPM_P1;HPM_P2
2023/03/27 00:00:41;;;;;;;8.90;1.10;;;;;;;;;;5109324;28;20039;-58
2023/03/27 00:03:10;;;;;;;14.95;1.98;;;;;;;;;;5109935;28;20048;-59
2023/03/27 00:05:36;;;;;;;11.95;0.98;;;;;;;;;;5109864;28;20051;-58
2023/03/27 00:08:03;;;;;;;10.27;1.15;;;;;;;;;;5110319;28;20044;-58
2023/03/27 00:10:30;;;;;;;2.85;0.70;;;;;;;;;;5109195;28;20452;-58
2023/03/27 00:12:56;;;;;;;6.47;0.90;;;;;;;;;;5109973;28;20065;-58
2023/03/27 00:15:23;;;;;;;5.97;0.70;;;;;;;;;;5109662;28;20431;-58
2023/03/27 00:17:50;;;;;;;7.28;1.05;;;;;;;;;;5109888;28;20043;-59
2023/03/27 00:20:20;;;;;;;8.65;0.93;;;;;;;;;;5110321;28;20058;-62
2023/03/27 00:22:48;;;;;;;7.88;1.00;;;;;;;;;;5108774;28;20043;-58
2023/03/27 00:25:16;;;;;;;6.30;1.23;;;;;;;;;;5110071;28;20112;-58
2023/03/27 00:27:43;;;;;;;13.63;1.00;;;;;;;;;;5110040;28;20405;-58
2023/03/27 00:30:10;;;;;;;9.05;1.05;;;;;;;;;;5109217;28;20044;-58
2023/03/27 00:32:36;;;;;;;9.02;1.20;;;;;;;;;;5109544;28;20086;-58
2023/03/27 00:35:03;;;;;;;8.27;1.20;;;;;;;;;;5109578;28;20037;-58
2023/03/27 00:37:30;;;;;;;7.47;0.80;;;;;;;;;;5109346;28;20042;-58
2023/03/27 00:39:56;;;;;;;3.42;0.75;;;;;;;;;;5107881;28;20063;-57
2023/03/27 00:42:23;;;;;;;7.75;0.80;;;;;;;;;;5109789;28;20043;-58
2023/03/27 00:44:50;;;;;;;5.20;0.60;;;;;;;;;;5108729;28;20131;-58
2023/03/27 00:47:19;;;;;;;5.07;0.70;;;;;;;;;;5109999;28;20096;-57
2023/03/27 00:49:47;;;;;;;3.53;0.90;;;;;;;;;;5109304;28;20092;-57
2023/03/27 00:52:15;;;;;;;8.63;1.43;;;;;;;;;;5108326;28;20058;-58
2023/03/27 00:54:42;;;;;;;9.38;1.05;;;;;;;;;;5109928;28;20105;-57
2023/03/27 00:57:11;;;;;;;6.40;0.88;;;;;;;;;;5109103;28;20374;-58
2023/03/27 00:59:41;;;;;;;4.40;0.63;;;;;;;;;;5107725;28;20051;-58
2023/03/27 01:02:08;;;;;;;3.08;0.65;;;;;;;;;;5108406;28;20047;-58
2023/03/27 01:04:35;;;;;;;5.10;1.13;;;;;;;;;;5108998;27;20052;-58
2023/03/27 01:07:04;;;;;;;5.05;0.77;;;;;;;;;;5107709;28;20468;-57
2023/03/27 01:09:30;;;;;;;1.42;0.45;;;;;;;;;;5108949;28;20086;-57
2023/03/27 01:12:05;;;;;;;5.72;0.60;;;;;;;;;;5109062;28;20472;-58
2023/03/27 01:14:35;;;;;;;4.13;0.70;;;;;;;;;;5107019;28;20043;-58
2023/03/27 01:17:12;;;;;;;4.57;0.75;;;;;;;;;;5109130;28;20532;-57
2023/03/27 01:19:55;;;;;;;7.10;1.15;;;;;;;;;;5107677;28;20516;-57
2023/03/27 01:22:21;;;;;;;9.63;0.75;;;;;;;;;;5108148;28;20108;-58
2023/03/27 01:24:59;;;;;;;5.15;0.57;;;;;;;;;;5108024;28;20052;-58
2023/03/27 01:27:29;;;;;;;4.38;0.80;;;;;;;;;;5107627;28;20055;-58
2023/03/27 01:29:55;;;;;;;8.75;0.82;;;;;;;;;;5106650;28;20065;-57
2023/03/27 01:32:21;;;;;;;9.85;1.77;;;;;;;;;;5108814;28;20508;-58
2023/03/27 01:35:03;;;;;;;6.47;0.75;;;;;;;;;;5108234;28;20040;-58
2023/03/27 01:37:37;;;;;;;6.97;1.00;;;;;;;;;;5108245;28;20047;-58
2023/03/27 01:40:04;;;;;;;8.90;0.73;;;;;;;;;;5108167;28;20101;-58
2023/03/27 01:42:37;;;;;;;10.98;1.05;;;;;;;;;;5108260;28;20092;-58
2023/03/27 01:45:06;;;;;;;6.28;0.50;;;;;;;;;;5107478;28;20108;-57
2023/03/27 01:47:32;;;;;;;5.65;0.50;;;;;;;;;;5108075;28;20043;-58
2023/03/27 01:50:19;;;;;;;5.97;0.70;;;;;;;;;;5100241;28;20498;-58
2023/03/27 01:52:50;;;;;;;3.60;0.30;;;;;;;;;;5086620;28;20150;-58
2023/03/27 01:55:18;;;;;;;6.53;0.52;;;;;;;;;;5088270;28;20062;-58
2023/03/27 01:57:48;;;;;;;4.07;0.53;;;;;;;;;;5087780;28;20560;-58
2023/03/27 02:00:16;;;;;;;7.13;0.82;;;;;;;;;;5086759;28;20074;-58
2023/03/27 02:02:55;;;;;;;10.35;0.73;;;;;;;;;;5087471;28;20186;-58
2023/03/27 02:05:31;;;;;;;4.97;0.70;;;;;;;;;;5087360;28;20048;-58
2023/03/27 02:08:03;;;;;;;3.22;0.40;;;;;;;;;;5086270;28;20054;-58
2023/03/27 02:10:32;;;;;;;5.63;0.95;;;;;;;;;;5086449;28;20044;-58
2023/03/27 02:13:03;;;;;;;3.28;0.52;;;;;;;;;;5087606;28;20032;-58
2023/03/27 02:15:32;;;;;;;3.58;0.60;;;;;;;;;;5086241;28;20070;-58
2023/03/27 02:18:03;;;;;;;4.78;0.95;;;;;;;;;;5087300;28;20043;-58
2023/03/27 02:20:30;;;;;;;11.05;0.82;;;;;;;;;;5086797;28;20044;-58
2023/03/27 02:22:59;;;;;;;4.43;0.80;;;;;;;;;;5087366;28;20119;-59
2023/03/27 02:25:25;;;;;;;6.15;0.70;;;;;;;;;;5085565;28;20779;-60
2023/03/27 02:28:11;;;;;;;2.50;0.63;;;;;;;;;;5087109;28;20077;-58
2023/03/27 02:30:42;;;;;;;5.38;1.10;;;;;;;;;;5085933;28;20090;-58
2023/03/27 02:33:13;;;;;;;4.55;1.30;;;;;;;;;;5086876;28;20047;-58
2023/03/27 02:35:48;;;;;;;3.58;0.60;;;;;;;;;;5086865;28;20059;-58
2023/03/27 02:38:14;;;;;;;6.20;0.70;;;;;;;;;;5085684;28;20096;-58
2023/03/27 02:40:59;;;;;;;13.13;1.55;;;;;;;;;;5086291;28;20100;-58
2023/03/27 02:43:36;;;;;;;9.63;0.85;;;;;;;;;;5086628;28;20438;-62
2023/03/27 02:46:05;;;;;;;11.18;0.73;;;;;;;;;;5086164;28;20105;-58
2023/03/27 02:48:34;;;;;;;5.15;0.70;;;;;;;;;;5086168;28;20081;-58
2023/03/27 02:51:04;;;;;;;5.60;0.68;;;;;;;;;;5086486;28;20222;-58
2023/03/27 02:53:32;;;;;;;6.45;0.73;;;;;;;;;;5085179;28;20044;-58
2023/03/27 02:55:59;;;;;;;3.57;0.80;;;;;;;;;;5086767;28;20040;-58
2023/03/27 02:58:34;;;;;;;6.88;0.73;;;;;;;;;;5084976;28;20051;-60
2023/03/27 03:01:00;;;;;;;11.02;0.63;;;;;;;;;;5085588;28;20036;-58
2023/03/27 03:03:30;;;;;;;10.65;0.70;;;;;;;;;;5085504;28;20050;-58
2023/03/27 03:05:57;;;;;;;3.92;0.50;;;;;;;;;;5086634;28;20040;-58
2023/03/27 03:08:24;;;;;;;9.13;1.00;;;;;;;;;;5085297;28;20513;-57
2023/03/27 03:10:50;;;;;;;6.70;0.88;;;;;;;;;;5086390;28;20063;-57
2023/03/27 03:13:16;;;;;;;6.55;0.52;;;;;;;;;;5086749;28;20121;-58
2023/03/27 03:15:45;;;;;;;6.72;0.68;;;;;;;;;;5085794;28;20044;-58
2023/03/27 03:18:11;;;;;;;6.40;1.15;;;;;;;;;;5086376;28;20036;-58
2023/03/27 03:20:38;;;;;;;5.57;0.82;;;;;;;;;;5086050;28;20744;-58
2023/03/27 03:23:05;;;;;;;4.72;0.50;;;;;;;;;;5086322;28;20036;-58
2023/03/27 03:25:31;;;;;;;10.95;0.90;;;;;;;;;;5085137;28;20494;-58
2023/03/27 03:28:00;;;;;;;9.75;1.65;;;;;;;;;;5086272;28;20560;-58
2023/03/27 03:30:27;;;;;;;8.85;0.65;;;;;;;;;;5085366;28;20044;-58
2023/03/27 03:32:54;;;;;;;8.07;0.63;;;;;;;;;;5086162;28;20133;-58
2023/03/27 03:35:22;;;;;;;2.67;0.73;;;;;;;;;;5086423;28;20051;-58
2023/03/27 03:37:50;;;;;;;2.65;0.60;;;;;;;;;;5085415;28;20550;-58
2023/03/27 03:40:17;;;;;;;3.53;0.50;;;;;;;;;;5086810;28;20456;-58
2023/03/27 03:42:44;;;;;;;3.53;0.88;;;;;;;;;;5086085;28;20044;-57
2023/03/27 03:45:10;;;;;;;4.13;0.65;;;;;;;;;;5085291;28;20038;-58
2023/03/27 03:47:37;;;;;;;4.47;0.80;;;;;;;;;;5085893;28;20458;-59
2023/03/27 03:50:03;;;;;;;6.53;0.50;;;;;;;;;;5086138;28;20074;-58
2023/03/27 03:52:30;;;;;;;5.40;0.60;;;;;;;;;;5085390;28;20076;-57
2023/03/27 03:54:56;;;;;;;3.88;0.50;;;;;;;;;;5084614;28;20083;-57
2023/03/27 03:57:22;;;;;;;7.53;0.70;;;;;;;;;;5085996;28;20048;-58
2023/03/27 03:59:48;;;;;;;6.05;0.80;;;;;;;;;;5084895;28;20036;-58
2023/03/27 04:02:27;;;;;;;6.95;0.77;;;;;;;;;;5084980;28;20040;-57
2023/03/27 04:04:53;;;;;;;6.43;1.35;;;;;;;;;;5086008;28;20069;-58
2023/03/27 04:07:20;;;;;;;6.38;1.10;;;;;;;;;;5084260;28;20048;-58
2023/03/27 04:09:47;;;;;;;3.83;0.70;;;;;;;;;;5084934;28;20059;-58
2023/03/27 04:12:13;;;;;;;4.35;0.60;;;;;;;;;;5085977;28;20039;-59
2023/03/27 04:14:39;;;;;;;8.77;0.73;;;;;;;;;;5084979;28;20052;-58
2023/03/27 04:17:05;;;;;;;4.30;0.68;;;;;;;;;;5085361;28;20072;-58
2023/03/27 04:19:31;;;;;;;5.95;0.90;;;;;;;;;;5085674;28;20125;-58
2023/03/27 04:22:01;;;;;;;2.97;0.60;;;;;;;;;;5085911;28;20055;-58
2023/03/27 04:24:29;;;;;;;6.82;1.13;;;;;;;;;;5071998;28;20087;-58
2023/03/27 04:26:57;;;;;;;6.55;1.73;;;;;;;;;;5085530;28;20056;-58
2023/03/27 04:29:23;;;;;;;8.02;0.73;;;;;;;;;;5084752;28;20044;-58
2023/03/27 04:31:50;;;;;;;3.53;0.68;;;;;;;;;;5085178;28;20048;-58
2023/03/27 04:34:19;;;;;;;8.48;2.35;;;;;;;;;;5086790;28;20056;-57
2023/03/27 04:36:46;;;;;;;8.27;0.93;;;;;;;;;;5089822;28;20052;-58
2023/03/27 04:39:16;;;;;;;5.85;0.82;;;;;;;;;;5089807;28;20071;-58
2023/03/27 04:41:47;;;;;;;4.22;0.93;;;;;;;;;;5089019;28;20059;-58
2023/03/27 04:44:16;;;;;;;4.90;0.60;;;;;;;;;;5088835;28;20141;-58
2023/03/27 04:46:42;;;;;;;;;;;;;;;;;;5089455;28;20512;-58
2023/03/27 04:49:08;;;;;;;3.42;0.43;;;;;;;;;;5089245;28;20265;-58
2023/03/27 04:51:34;;;;;;;8.23;1.00;;;;;;;;;;5088644;28;20047;-58
2023/03/27 04:54:04;;;;;;;3.88;0.60;;;;;;;;;;5088878;28;20036;-58
2023/03/27 04:56:32;;;;;;;7.93;0.70;;;;;;;;;;5088427;28;20573;-57
2023/03/27 04:58:58;;;;;;;5.82;0.82;;;;;;;;;;5088033;28;20097;-58
2023/03/27 05:01:24;;;;;;;6.22;0.50;;;;;;;;;;5089042;28;20047;-58
2023/03/27 05:03:52;;;;;;;3.40;1.30;;;;;;;;;;5088421;28;20032;-57
2023/03/27 05:06:18;;;;;;;9.57;1.08;;;;;;;;;;5088272;28;20405;-57
2023/03/27 05:08:45;;;;;;;9.45;0.70;;;;;;;;;;5086688;28;20615;-57
2023/03/27 05:11:11;;;;;;;7.05;1.10;;;;;;;;;;5088721;28;20044;-57
2023/03/27 05:13:38;;;;;;;5.53;1.13;;;;;;;;;;5088587;28;20401;-58
2023/03/27 05:16:04;;;;;;;9.65;0.80;;;;;;;;;;5087211;28;20040;-57
2023/03/27 05:18:31;;;;;;;7.35;0.77;;;;;;;;;;5087619;28;20113;-57
2023/03/27 05:20:57;;;;;;;7.22;0.68;;;;;;;;;;5088537;28;20032;-58
2023/03/27 05:23:24;;;;;;;2.67;0.70;;;;;;;;;;5088654;28;20036;-57
2023/03/27 05:25:50;;;;;;;7.90;0.82;;;;;;;;;;5088115;28;20048;-57
2023/03/27 05:28:17;;;;;;;10.68;0.98;;;;;;;;;;5087108;28;20082;-57
2023/03/27 05:30:43;;;;;;;6.70;0.77;;;;;;;;;;5088005;28;20122;-57
2023/03/27 05:33:12;;;;;;;6.25;0.95;;;;;;;;;;5088479;28;20043;-57
2023/03/27 05:35:45;;;;;;;9.07;1.30;;;;;;;;;;5087912;28;20086;-58
2023/03/27 05:38:12;;;;;;;7.97;1.08;;;;;;;;;;5088341;28;20484;-57
2023/03/27 05:40:38;;;;;;;5.32;0.90;;;;;;;;;;5087887;28;20078;-57
2023/03/27 05:43:05;;;;;;;9.88;1.35;;;;;;;;;;5086308;28;20044;-57
2023/03/27 05:45:32;;;;;;;5.97;1.15;;;;;;;;;;5087273;28;20079;-57
2023/03/27 05:48:00;;;;;;;6.75;0.70;;;;;;;;;;5088316;28;20038;-57
2023/03/27 05:50:29;;;;;;;9.32;1.05;;;;;;;;;;5078265;28;20040;-57
2023/03/27 05:52:57;;;;;;;10.63;1.05;;;;;;;;;;5078401;28;20100;-56
2023/03/27 05:55:24;;;;;;;5.03;0.98;;;;;;;;;;5087682;28;20455;-57
2023/03/27 05:57:50;;;;;;;6.50;1.48;;;;;;;;;;5085531;28;20043;-57
2023/03/27 06:00:21;;;;;;;7.45;1.30;;;;;;;;;;5086711;28;20051;-58
2023/03/27 06:02:48;;;;;;;4.57;1.00;;;;;;;;;;5086597;28;20048;-58
2023/03/27 06:05:14;;;;;;;10.70;2.22;;;;;;;;;;5087722;28;20040;-57
2023/03/27 06:07:42;;;;;;;6.25;1.00;;;;;;;;;;5086491;28;20050;-57
2023/03/27 06:10:09;;;;;;;4.60;0.90;;;;;;;;;;5085409;28;20048;-57
2023/03/27 06:12:36;;;;;;;6.40;0.90;;;;;;;;;;5086726;28;20055;-57
2023/03/27 06:15:04;;;;;;;5.55;1.00;;;;;;;;;;5086011;28;20048;-57
2023/03/27 06:17:30;;;;;;;2.88;0.80;;;;;;;;;;5087116;28;20474;-57
2023/03/27 06:19:56;;;;;;;6.60;0.50;;;;;;;;;;5086212;28;20087;-57
2023/03/27 06:22:22;;;;;;;5.80;0.50;;;;;;;;;;5087234;28;20059;-57
2023/03/27 06:24:49;;;;;;;2.85;0.65;;;;;;;;;;5086906;28;20047;-57
2023/03/27 06:27:15;;;;;;;2.40;1.13;;;;;;;;;;5086681;28;20063;-57
2023/03/27 06:29:41;;;;;;;3.80;0.80;;;;;;;;;;5085814;28;20454;-58
2023/03/27 06:32:07;;;;;;;4.40;0.50;;;;;;;;;;5086748;28;20501;-58
2023/03/27 06:34:33;;;;;;;2.45;0.52;;;;;;;;;;5086598;28;20062;-57
2023/03/27 06:37:02;;;;;;;7.65;0.65;;;;;;;;;;5087108;28;20039;-57
2023/03/27 06:39:28;;;;;;;3.03;0.50;;;;;;;;;;5086369;28;20133;-58
2023/03/27 06:41:55;;;;;;;3.33;0.55;;;;;;;;;;5086648;28;20048;-58
2023/03/27 06:44:21;;;;;;;5.43;0.60;;;;;;;;;;5086150;28;20051;-57
2023/03/27 06:46:47;;;;;;;2.97;0.45;;;;;;;;;;5086639;28;20477;-58
2023/03/27 06:49:14;;;;;;;4.80;0.50;;;;;;;;;;5087094;28;20131;-58
2023/03/27 06:51:40;;;;;;;5.60;0.60;;;;;;;;;;5086282;28;20032;-58
2023/03/27 06:54:07;;;;;;;4.40;0.70;;;;;;;;;;5086762;28;20075;-58
2023/03/27 06:56:33;;;;;;;3.10;0.45;;;;;;;;;;5085289;28;20039;-57
2023/03/27 06:58:59;;;;;;;3.30;0.88;;;;;;;;;;5084202;28;20078;-57
2023/03/27 07:01:25;;;;;;;8.50;0.80;;;;;;;;;;5085768;28;20048;-60
2023/03/27 07:03:52;;;;;;;8.30;0.50;;;;;;;;;;5086285;28;20028;-58
2023/03/27 07:06:18;;;;;;;3.70;0.60;;;;;;;;;;5085089;28;20100;-58
2023/03/27 07:08:44;;;;;;;4.20;1.15;;;;;;;;;;5086501;28;20110;-57
2023/03/27 07:11:10;;;;;;;3.05;0.43;;;;;;;;;;5086103;28;20144;-58
2023/03/27 07:13:36;;;;;;;3.75;0.50;;;;;;;;;;5085198;28;20619;-58
2023/03/27 07:16:03;;;;;;;9.80;1.20;;;;;;;;;;5086616;28;20055;-57
2023/03/27 07:18:29;;;;;;;5.35;0.80;;;;;;;;;;5086299;28;20607;-57
2023/03/27 07:20:55;;;;;;;5.43;1.00;;;;;;;;;;5086113;28;20050;-57
2023/03/27 07:23:21;;;;;;;6.63;0.95;;;;;;;;;;5086625;28;20040;-58
2023/03/27 07:25:48;;;;;;;4.53;0.90;;;;;;;;;;5084190;28;20135;-58
2023/03/27 07:28:17;;;;;;;5.07;0.90;;;;;;;;;;5086650;28;20050;-57
2023/03/27 07:30:43;;;;;;;5.85;0.63;;;;;;;;;;5085747;28;20036;-57
2023/03/27 07:33:09;;;;;;;6.22;0.90;;;;;;;;;;5086190;28;20044;-58
2023/03/27 07:35:42;;;;;;;6.03;0.80;;;;;;;;;;5086024;28;20468;-57
2023/03/27 07:38:09;;;;;;;11.77;1.98;;;;;;;;;;5085879;28;20047;-58
2023/03/27 07:40:35;;;;;;;7.45;1.48;;;;;;;;;;5086037;28;20044;-57
2023/03/27 07:43:05;;;;;;;7.22;0.63;;;;;;;;;;5084972;28;20044;-57
2023/03/27 07:45:32;;;;;;;6.18;1.02;;;;;;;;;;5085124;28;20040;-57
2023/03/27 07:48:07;;;;;;;12.23;1.10;;;;;;;;;;5086048;28;20043;-58
2023/03/27 07:50:33;;;;;;;4.63;1.05;;;;;;;;;;5085687;28;20424;-57
2023/03/27 07:52:59;;;;;;;5.65;0.68;;;;;;;;;;5085706;28;20512;-57
2023/03/27 07:55:28;;;;;;;5.53;0.90;;;;;;;;;;5085630;28;20078;-58
2023/03/27 07:57:54;;;;;;;3.70;1.30;;;;;;;;;;5086161;28;20054;-57
2023/03/27 08:00:21;;;;;;;9.35;0.63;;;;;;;;;;5085410;28;20108;-58
2023/03/27 08:02:49;;;;;;;10.50;0.80;;;;;;;;;;5084793;28;20052;-58
2023/03/27 08:05:16;;;;;;;6.38;0.80;;;;;;;;;;5086253;28;20074;-57
2023/03/27 08:07:44;;;;;;;4.45;0.80;;;;;;;;;;5085728;28;20044;-57
2023/03/27 08:10:11;;;;;;;9.00;1.10;;;;;;;;;;5089421;28;20093;-58
2023/03/27 08:12:37;;;;;;;5.63;0.77;;;;;;;;;;5089670;28;20116;-58
2023/03/27 08:15:04;;;;;;;5.75;0.50;;;;;;;;;;5088655;28;20059;-57
2023/03/27 08:17:32;;;;;;;3.03;0.22;;;;;;;;;;5089557;28;20047;-57
2023/03/27 08:20:00;;;;;;;4.70;0.47;;;;;;;;;;5089573;28;20040;-57
2023/03/27 08:22:27;;;;;;;7.88;0.77;;;;;;;;;;5089191;28;20047;-57
2023/03/27 08:24:53;;;;;;;5.53;0.80;;;;;;;;;;5089840;28;20044;-57
2023/03/27 08:27:19;;;;;;;1.95;0.30;;;;;;;;;;5089045;28;20047;-57
2023/03/27 08:29:46;;;;;;;4.03;0.45;;;;;;;;;;5088618;28;20063;-57
2023/03/27 08:32:12;;;;;;;3.83;0.38;;;;;;;;;;5089517;28;20069;-57
2023/03/27 08:34:39;;;;;;;5.97;0.73;;;;;;;;;;5087788;28;20040;-57
2023/03/27 08:37:07;;;;;;;2.45;0.50;;;;;;;;;;5089144;28;20079;-57
2023/03/27 08:39:33;;;;;;;4.18;0.60;;;;;;;;;;5089164;28;20456;-57
2023/03/27 08:42:01;;;;;;;3.80;1.02;;;;;;;;;;5089148;28;20044;-57
2023/03/27 08:44:29;;;;;;;5.57;0.88;;;;;;;;;;5088172;28;20071;-58
2023/03/27 08:46:59;;;;;;;9.52;0.98;;;;;;;;;;5089097;28;20074;-57
2023/03/27 08:49:27;;;;;;;5.10;0.55;;;;;;;;;;5088937;28;20097;-58
2023/03/27 08:52:02;;;;;;;1.60;0.50;;;;;;;;;;5089261;28;20370;-58
2023/03/27 08:54:30;;;;;;;6.13;0.75;;;;;;;;;;5088617;28;20119;-58
2023/03/27 08:56:57;;;;;;;5.30;0.65;;;;;;;;;;5088884;28;20060;-57
2023/03/27 08:59:26;;;;;;;6.10;0.88;;;;;;;;;;5088274;28;20094;-57
2023/03/27 09:02:02;;;;;;;8.07;0.80;;;;;;;;;;5080357;28;20074;-57
2023/03/27 09:04:34;;;;;;;5.45;0.70;;;;;;;;;;5068207;28;20821;-57
2023/03/27 09:07:11;;;;;;;6.95;0.68;;;;;;;;;;5074828;28;20042;-57
2023/03/27 09:09:45;;;;;;;8.48;0.93;;;;;;;;;;5088204;28;20049;-58
2023/03/27 09:12:19;;;;;;;2.50;0.52;;;;;;;;;;5088591;28;20062;-57
2023/03/27 09:14:47;;;;;;;2.95;0.40;;;;;;;;;;5088084;28;20040;-57
2023/03/27 09:17:22;;;;;;;1.80;0.40;;;;;;;;;;5089055;28;20036;-57
2023/03/27 09:19:53;;;;;;;1.95;0.20;;;;;;;;;;5087845;28;20393;-58
2023/03/27 09:22:23;;;;;;;1.10;0.20;;;;;;;;;;5088239;28;20036;-57
2023/03/27 09:24:51;;;;;;;1.27;0.20;;;;;;;;;;5087815;28;20070;-57
2023/03/27 09:27:22;;;;;;;1.80;0.20;;;;;;;;;;5087978;28;20048;-61
2023/03/27 09:29:56;;;;;;;3.90;0.30;;;;;;;;;;5087481;28;20075;-58
2023/03/27 09:32:22;;;;;;;3.35;0.20;;;;;;;;;;5088354;28;20099;-57
2023/03/27 09:34:48;;;;;;;4.13;0.50;;;;;;;;;;5087752;28;20044;-58
2023/03/27 09:37:16;;;;;;;7.32;0.82;;;;;;;;;;5088372;28;20032;-57
2023/03/27 09:39:45;;;;;;;2.73;0.40;;;;;;;;;;5088489;28;20048;-57
2023/03/27 09:42:22;;;;;;;1.52;0.30;;;;;;;;;;5088247;28;20131;-57
2023/03/27 09:44:53;;;;;;;6.03;0.47;;;;;;;;;;5086705;28;20086;-58
2023/03/27 09:47:22;;;;;;;3.70;0.30;;;;;;;;;;5087804;28;20123;-57
2023/03/27 09:49:52;;;;;;;7.07;1.85;;;;;;;;;;5087437;28;20421;-57
2023/03/27 09:52:37;;;;;;;3.22;0.40;;;;;;;;;;5087775;28;20048;-58
2023/03/27 09:55:22;;;;;;;2.30;0.45;;;;;;;;;;5087928;28;20502;-57
2023/03/27 09:57:48;;;;;;;9.20;0.60;;;;;;;;;;5087454;28;20043;-57
2023/03/27 10:00:26;;;;;;;4.22;0.60;;;;;;;;;;5087000;28;20081;-57
2023/03/27 10:03:00;;;;;;;3.58;1.05;;;;;;;;;;5087636;28;20056;-57
2023/03/27 10:05:26;;;;;;;4.03;0.68;;;;;;;;;;5087541;28;20103;-57
2023/03/27 10:07:53;;;;;;;4.07;1.05;;;;;;;;;;5087548;28;20055;-57
2023/03/27 10:10:20;;;;;;;2.10;0.50;;;;;;;;;;5087493;28;20036;-57
2023/03/27 10:12:49;;;;;;;5.95;0.32;;;;;;;;;;5087199;28;20043;-57
2023/03/27 10:15:24;;;;;;;3.53;0.50;;;;;;;;;;5087157;28;20040;-57
2023/03/27 10:17:50;;;;;;;4.10;0.50;;;;;;;;;;5087384;28;20052;-57
2023/03/27 10:20:18;;;;;;;11.07;1.23;;;;;;;;;;5087446;28;20440;-58
2023/03/27 10:22:59;;;;;;;5.55;0.65;;;;;;;;;;5087415;28;20119;-58
2023/03/27 10:25:29;;;;;;;6.78;0.85;;;;;;;;;;5086180;28;20808;-58
2023/03/27 10:28:06;;;;;;;7.75;0.70;;;;;;;;;;5087332;28;20122;-57
2023/03/27 10:30:33;;;;;;;2.25;0.70;;;;;;;;;;5086755;28;20550;-58
2023/03/27 10:32:59;;;;;;;6.70;0.63;;;;;;;;;;5086364;28;20086;-58
2023/03/27 10:35:27;;;;;;;7.32;0.60;;;;;;;;;;5087105;28;20079;-59
2023/03/27 10:37:54;;;;;;;8.07;0.70;;;;;;;;;;5086839;28;20032;-58
2023/03/27 10:40:24;;;;;;;6.22;0.63;;;;;;;;;;5086686;28;20036;-58
2023/03/27 10:42:51;;;;;;;3.45;0.40;;;;;;;;;;5085074;28;20473;-58
2023/03/27 10:45:19;;;;;;;2.55;0.47;;;;;;;;;;5085766;28;20158;-58
2023/03/27 10:47:47;;;;;;;5.50;0.52;;;;;;;;;;5086825;28;20497;-58
2023/03/27 10:50:19;;;;;;;6.28;0.60;;;;;;;;;;5086966;28;20074;-58
2023/03/27 10:52:54;;;;;;;5.82;0.70;;;;;;;;;;5086534;28;20565;-58
2023/03/27 10:55:43;;;;;;;7.53;0.60;;;;;;;;;;5075241;28;20055;-57
2023/03/27 10:58:16;;;;;;;9.18;0.80;;;;;;;;;;5085727;28;20051;-59
2023/03/27 11:00:47;;;;;;;5.22;0.60;;;;;;;;;;5073381;28;20044;-57
2023/03/27 11:03:26;;;;;;;4.18;0.40;;;;;;;;;;5086711;28;20154;-57
2023/03/27 11:05:53;;;;;;;1.83;0.40;;;;;;;;;;5082112;28;20044;-58
2023/03/27 11:08:31;;;;;;;2.53;0.40;;;;;;;;;;5086420;28;20048;-58
2023/03/27 11:11:02;;;;;;;1.83;0.43;;;;;;;;;;5082719;28;20490;-59
2023/03/27 11:13:40;;;;;;;3.85;0.30;;;;;;;;;;5085038;28;20055;-58
2023/03/27 11:16:25;;;;;;;2.35;0.52;;;;;;;;;;5084245;28;20048;-57
2023/03/27 11:18:55;;;;;;;3.50;0.45;;;;;;;;;;5086238;28;20105;-58
2023/03/27 11:21:25;;;;;;;2.67;0.40;;;;;;;;;;5085739;28;20048;-58
2023/03/27 11:23:54;;;;;;;5.95;0.40;;;;;;;;;;5085802;28;20050;-58
2023/03/27 11:26:23;;;;;;;6.03;0.60;;;;;;;;;;5086075;28;20058;-58
2023/03/27 11:28:51;;;;;;;3.42;0.40;;;;;;;;;;5084909;28;20493;-57
2023/03/27 11:31:19;;;;;;;6.43;0.73;;;;;;;;;;5085967;28;20117;-58
2023/03/27 11:33:59;;;;;;;8.65;1.63;;;;;;;;;;5086040;28;20477;-57
2023/03/27 11:36:29;;;;;;;4.45;0.40;;;;;;;;;;5083057;28;20036;-60
2023/03/27 11:39:03;;;;;;;5.95;0.65;;;;;;;;;;5086184;28;20055;-57
2023/03/27 11:41:29;;;;;;;1.80;0.20;;;;;;;;;;5085612;28;20052;-57
2023/03/27 11:43:56;;;;;;;2.75;0.25;;;;;;;;;;5088793;28;20044;-57
2023/03/27 11:46:27;;;;;;;3.30;0.30;;;;;;;;;;5089806;28;20044;-58
2023/03/27 11:49:02;;;;;;;2.47;0.28;;;;;;;;;;5090411;28;20044;-57
2023/03/27 11:51:31;;;;;;;3.55;0.30;;;;;;;;;;5089711;28;20040;-59
2023/03/27 11:54:07;;;;;;;3.08;0.30;;;;;;;;;;5089565;28;20050;-58
2023/03/27 11:56:42;;;;;;;2.33;0.30;;;;;;;;;;5089084;28;20040;-57
2023/03/27 11:59:23;;;;;;;1.92;0.40;;;;;;;;;;5088871;28;20118;-58
2023/03/27 12:01:55;;;;;;;2.53;0.60;;;;;;;;;;5089542;28;20101;-58
2023/03/27 12:04:38;;;;;;;3.88;0.20;;;;;;;;;;5089972;28;20044;-57
2023/03/27 12:07:21;;;;;;;5.55;0.60;;;;;;;;;;5089582;28;20040;-57
2023/03/27 12:09:58;;;;;;;6.18;0.50;;;;;;;;;;5089955;28;20048;-61
2023/03/27 12:12:31;;;;;;;4.03;0.52;;;;;;;;;;5089784;28;20120;-57
2023/03/27 12:15:03;;;;;;;8.88;1.20;;;;;;;;;;5088875;28;20044;-58
2023/03/27 12:17:32;;;;;;;4.85;0.57;;;;;;;;;;5089402;28;20047;-58
2023/03/27 12:20:09;;;;;;;3.65;0.40;;;;;;;;;;5089587;28;20123;-58
2023/03/27 12:22:47;;;;;;;4.50;0.30;;;;;;;;;;5088237;28;20492;-58
2023/03/27 12:25:17;;;;;;;1.10;0.30;;;;;;;;;;5089366;28;20044;-57
2023/03/27 12:27:52;;;;;;;5.22;0.60;;;;;;;;;;5088926;28;20048;-61
2023/03/27 12:30:30;;;;;;;3.22;0.70;;;;;;;;;;5089252;28;20520;-58
2023/03/27 12:32:58;;;;;;;9.18;0.60;;;;;;;;;;5089687;28;20051;-58
2023/03/27 12:35:26;;;;;;;15.40;2.38;;;;;;;;;;5089067;28;20044;-57
2023/03/27 12:37:58;;;;;;;8.98;0.50;;;;;;;;;;5089463;28;20036;-57
2023/03/27 12:40:27;;;;;;;5.55;0.80;;;;;;;;;;5089099;28;20089;-58
2023/03/27 12:43:02;;;;;;;4.22;0.50;;;;;;;;;;5088433;28;20035;-58
2023/03/27 12:45:28;;;;;;;4.57;0.50;;;;;;;;;;5088725;28;20082;-58
2023/03/27 12:48:17;;;;;;;3.63;0.95;;;;;;;;;;5089162;28;20054;-58
2023/03/27 12:50:44;;;;;;;3.00;0.50;;;;;;;;;;5088936;28;20045;-57
2023/03/27 12:53:28;;;;;;;3.40;0.93;;;;;;;;;;5088933;28;20044;-58
2023/03/27 12:56:11;;;;;;;5.82;0.47;;;;;;;;;;5088353;28;20123;-58
2023/03/27 12:58:38;;;;;;;6.00;0.40;;;;;;;;;;5075563;28;20497;-59
2023/03/27 13:01:06;;;;;;;3.97;1.00;;;;;;;;;;5087439;28;20044;-58
2023/03/27 13:03:32;;;;;;;;;;;;;;;;;;5088528;28;20062;-58
2023/03/27 13:06:11;;;;;;;4.55;0.50;;;;;;;;;;5088723;28;20031;-59
2023/03/27 13:08:37;;;;;;;;;;;;;;;;;;5088936;28;20401;-58
2023/03/27 13:11:03;;;;;;;4.97;1.10;;;;;;;;;;5088886;28;19920;-58
2023/03/27 13:13:37;;;;;;;3.95;0.60;;;;;;;;;;5087116;28;20173;-58
2023/03/27 13:16:13;;;;;;;3.88;0.40;;;;;;;;;;5088439;28;20040;-58
2023/03/27 13:18:50;;;;;;;11.07;1.13;;;;;;;;;;5088092;28;20118;-58
2023/03/27 13:21:41;;;;;;;6.82;0.45;;;;;;;;;;5088364;28;20119;-59
2023/03/27 13:24:13;;;;;;;5.43;0.50;;;;;;;;;;5072598;28;20308;-59
2023/03/27 13:26:46;;;;;;;7.93;0.73;;;;;;;;;;5085092;28;20567;-58
2023/03/27 13:29:15;;;;;;;5.65;0.57;;;;;;;;;;5087225;28;20127;-58
2023/03/27 13:31:44;;;;;;;4.85;1.08;;;;;;;;;;5087983;28;20047;-58
2023/03/27 13:34:13;;;;;;;3.65;0.52;;;;;;;;;;5087872;28;20070;-58
2023/03/27 13:36:41;;;;;;;6.57;0.57;;;;;;;;;;5087837;28;20052;-58
2023/03/27 13:39:13;;;;;;;3.50;0.70;;;;;;;;;;5087532;28;20044;-58
2023/03/27 13:41:45;;;;;;;4.15;0.98;;;;;;;;;;5087352;28;20036;-58
2023/03/27 13:44:23;;;;;;;5.10;0.60;;;;;;;;;;5087177;28;20421;-58
2023/03/27 13:46:54;;;;;;;7.95;0.63;;;;;;;;;;5067509;28;20055;-58
2023/03/27 13:49:44;;;;;;;9.73;1.20;;;;;;;;;;5074121;28;20124;-57
2023/03/27 13:52:11;;;;;;;10.07;0.88;;;;;;;;;;5086351;28;20101;-57
2023/03/27 13:54:55;;;;;;;6.00;0.60;;;;;;;;;;5087036;28;20058;-57
2023/03/27 13:57:34;;;;;;;5.15;0.47;;;;;;;;;;5087099;28;20055;-55
2023/03/27 14:00:12;;;;;;;8.35;1.08;;;;;;;;;;5087471;28;20067;-57
2023/03/27 14:02:40;;;;;;;9.00;0.73;;;;;;;;;;5087361;28;20051;-57
2023/03/27 14:05:07;;;;;;;7.32;1.13;;;;;;;;;;5085636;28;20056;-57
2023/03/27 14:07:47;;;;;;;6.60;0.80;;;;;;;;;;5085815;28;20052;-57
2023/03/27 14:10:32;;;;;;;14.05;0.90;;;;;;;;;;5087736;28;20079;-57
2023/03/27 14:12:58;;;;;;;3.50;0.50;;;;;;;;;;5086583;28;20044;-57
2023/03/27 14:15:30;;;;;;;5.10;0.60;;;;;;;;;;5087268;28;20438;-57
2023/03/27 14:18:02;;;;;;;3.38;0.45;;;;;;;;;;5086064;28;20523;-58
2023/03/27 14:20:30;;;;;;;4.47;0.80;;;;;;;;;;5087026;28;20051;-58
2023/03/27 14:23:00;;;;;;;8.48;1.23;;;;;;;;;;5087146;28;20036;-57
2023/03/27 14:25:37;;;;;;;8.65;0.70;;;;;;;;;;5086624;28;20564;-57
2023/03/27 14:28:06;;;;;;;5.95;0.65;;;;;;;;;;5084385;28;20126;-57
2023/03/27 14:30:41;;;;;;;3.95;0.50;;;;;;;;;;5086449;28;20048;-57
2023/03/27 14:33:08;;;;;;;7.15;0.60;;;;;;;;;;5086401;28;20044;-58
2023/03/27 14:35:36;;;;;;;5.95;0.30;;;;;;;;;;5086963;28;20504;-58
2023/03/27 14:38:04;;;;;;;3.22;0.40;;;;;;;;;;5087144;28;20452;-58
2023/03/27 14:40:32;;;;;;;5.88;0.50;;;;;;;;;;5079684;28;20123;-57
2023/03/27 14:42:59;;;;;;;7.40;0.73;;;;;;;;;;5086279;28;20496;-58
2023/03/27 14:45:28;;;;;;;1.63;0.28;;;;;;;;;;5086319;28;20048;-59
2023/03/27 14:47:56;;;;;;;3.40;0.50;;;;;;;;;;5086444;28;20114;-57
2023/03/27 14:50:24;;;;;;;6.85;0.50;;;;;;;;;;5086578;28;20123;-57
2023/03/27 14:52:51;;;;;;;6.75;0.38;;;;;;;;;;5086457;28;20507;-57
2023/03/27 14:55:18;;;;;;;6.13;0.57;;;;;;;;;;5086371;28;20032;-57
2023/03/27 14:57:47;;;;;;;2.92;0.40;;;;;;;;;;5085945;28;20472;-57